sensor_id;sensor_type;location;lat;lon;timestamp;P1;durP1;ratioP1;P2;durP2;ratioP2
32319;SDS011;19080;51.750;5.888;2024-03-02T00:00:39;2.15;;;1.38;;
32319;SDS011;19080;51.750;5.888;2024-03-02T00:03:06;1.45;;;1.20;;
32319;SDS011;19080;51.750;5.888;2024-03-02T00:05:33;3.28;;;1.60;;
32319;SDS011;19080;51.750;5.888;2024-03-02T00:08:00;3.83;;;1.48;;
32319;SDS011;19080;51.750;5.888;2024-03-02T00:10:37;2.30;;;0.98;;
32319;SDS011;19080;51.750;5.888;2024-03-02T00:13:08;2.60;;;1.35;;
32319;SDS011;19080;51.750;5.888;2024-03-02T00:18:04;3.10;;;1.30;;
32319;SDS011;19080;51.750;5.888;2024-03-02T00:20:32;2.97;;;1.23;;
32319;SDS011;19080;51.750;5.888;2024-03-02T00:23:05;3.25;;;1.30;;
32319;SDS011;19080;51.750;5.888;2024-03-02T00:31:01;2.85;;;1.13;;
32319;SDS011;19080;51.750;5.888;2024-03-02T00:33:36;1.48;;;1.20;;
32319;SDS011;19080;51.750;5.888;2024-03-02T00:36:07;1.23;;;1.10;;
32319;SDS011;19080;51.750;5.888;2024-03-02T00:38:34;2.17;;;1.60;;
32319;SDS011;19080;51.750;5.888;2024-03-02T00:41:33;1.05;;;0.90;;
32319;SDS011;19080;51.750;5.888;2024-03-02T00:43:59;3.00;;;1.15;;
32319;SDS011;19080;51.750;5.888;2024-03-02T00:46:28;4.72;;;1.08;;
32319;SDS011;19080;51.750;5.888;2024-03-02T00:48:59;2.35;;;1.00;;
32319;SDS011;19080;51.750;5.888;2024-03-02T00:51:27;4.25;;;1.20;;
32319;SDS011;19080;51.750;5.888;2024-03-02T00:53:58;2.25;;;1.05;;
32319;SDS011;19080;51.750;5.888;2024-03-02T00:56:26;2.47;;;1.15;;
32319;SDS011;19080;51.750;5.888;2024-03-02T00:58:54;4.00;;;1.20;;
32319;SDS011;19080;51.750;5.888;2024-03-02T01:01:21;4.85;;;1.23;;
32319;SDS011;19080;51.750;5.888;2024-03-02T01:03:49;5.60;;;0.88;;
32319;SDS011;19080;51.750;5.888;2024-03-02T01:06:16;2.53;;;1.10;;
32319;SDS011;19080;51.750;5.888;2024-03-02T01:08:43;2.13;;;0.90;;
32319;SDS011;19080;51.750;5.888;2024-03-02T01:11:10;3.92;;;1.60;;
32319;SDS011;19080;51.750;5.888;2024-03-02T01:13:37;1.02;;;0.93;;
32319;SDS011;19080;51.750;5.888;2024-03-02T01:16:04;1.63;;;0.75;;
32319;SDS011;19080;51.750;5.888;2024-03-02T01:18:31;1.15;;;0.68;;
32319;SDS011;19080;51.750;5.888;2024-03-02T01:20:58;1.55;;;0.50;;
32319;SDS011;19080;51.750;5.888;2024-03-02T01:23:25;0.65;;;0.32;;
32319;SDS011;19080;51.750;5.888;2024-03-02T01:25:52;0.47;;;0.32;;
32319;SDS011;19080;51.750;5.888;2024-03-02T01:28:19;1.48;;;0.35;;
32319;SDS011;19080;51.750;5.888;2024-03-02T01:30:47;0.70;;;0.20;;
32319;SDS011;19080;51.750;5.888;2024-03-02T01:33:15;1.13;;;0.52;;
32319;SDS011;19080;51.750;5.888;2024-03-02T01:35:42;1.80;;;0.50;;
32319;SDS011;19080;51.750;5.888;2024-03-02T01:38:09;0.45;;;0.30;;
32319;SDS011;19080;51.750;5.888;2024-03-02T01:40:36;0.75;;;0.30;;
32319;SDS011;19080;51.750;5.888;2024-03-02T01:43:04;1.73;;;0.35;;
32319;SDS011;19080;51.750;5.888;2024-03-02T01:45:31;0.35;;;0.20;;
32319;SDS011;19080;51.750;5.888;2024-03-02T01:47:59;1.92;;;0.40;;
32319;SDS011;19080;51.750;5.888;2024-03-02T01:50:29;0.52;;;0.35;;
32319;SDS011;19080;51.750;5.888;2024-03-02T01:52:58;0.43;;;0.30;;
32319;SDS011;19080;51.750;5.888;2024-03-02T01:55:26;1.45;;;0.38;;
32319;SDS011;19080;51.750;5.888;2024-03-02T01:57:55;0.85;;;0.30;;
32319;SDS011;19080;51.750;5.888;2024-03-02T02:00:22;0.60;;;0.22;;
32319;SDS011;19080;51.750;5.888;2024-03-02T02:02:53;0.50;;;0.30;;
32319;SDS011;19080;51.750;5.888;2024-03-02T02:05:20;0.43;;;0.10;;
32319;SDS011;19080;51.750;5.888;2024-03-02T02:07:46;0.28;;;0.20;;
32319;SDS011;19080;51.750;5.888;2024-03-02T02:10:13;2.42;;;0.30;;
32319;SDS011;19080;51.750;5.888;2024-03-02T02:12:40;0.30;;;0.30;;
32319;SDS011;19080;51.750;5.888;2024-03-02T02:15:28;1.25;;;0.40;;
32319;SDS011;19080;51.750;5.888;2024-03-02T02:17:55;0.10;;;0.10;;
32319;SDS011;19080;51.750;5.888;2024-03-02T02:20:23;0.22;;;0.20;;
32319;SDS011;19080;51.750;5.888;2024-03-02T02:22:54;0.43;;;0.30;;
32319;SDS011;19080;51.750;5.888;2024-03-02T02:25:29;0.25;;;0.25;;
32319;SDS011;19080;51.750;5.888;2024-03-02T02:27:56;2.47;;;0.40;;
32319;SDS011;19080;51.750;5.888;2024-03-02T02:30:28;0.88;;;0.28;;
32319;SDS011;19080;51.750;5.888;2024-03-02T02:32:56;0.32;;;0.20;;
32319;SDS011;19080;51.750;5.888;2024-03-02T02:35:23;0.20;;;0.20;;
32319;SDS011;19080;51.750;5.888;2024-03-02T02:37:53;0.38;;;0.35;;
32319;SDS011;19080;51.750;5.888;2024-03-02T02:40:21;0.30;;;0.20;;
32319;SDS011;19080;51.750;5.888;2024-03-02T02:42:48;0.52;;;0.32;;
32319;SDS011;19080;51.750;5.888;2024-03-02T02:45:15;2.00;;;0.40;;
32319;SDS011;19080;51.750;5.888;2024-03-02T02:47:42;0.43;;;0.30;;
32319;SDS011;19080;51.750;5.888;2024-03-02T02:50:11;1.55;;;0.30;;
32319;SDS011;19080;51.750;5.888;2024-03-02T02:52:39;1.25;;;0.32;;
32319;SDS011;19080;51.750;5.888;2024-03-02T02:55:08;0.63;;;0.17;;
32319;SDS011;19080;51.750;5.888;2024-03-02T02:57:36;2.17;;;0.30;;
32319;SDS011;19080;51.750;5.888;2024-03-02T03:00:07;0.40;;;0.30;;
32319;SDS011;19080;51.750;5.888;2024-03-02T03:02:42;0.52;;;0.30;;
32319;SDS011;19080;51.750;5.888;2024-03-02T03:05:11;1.98;;;1.13;;
32319;SDS011;19080;51.750;5.888;2024-03-02T03:07:39;1.27;;;0.28;;
32319;SDS011;19080;51.750;5.888;2024-03-02T03:10:06;0.20;;;0.20;;
32319;SDS011;19080;51.750;5.888;2024-03-02T03:12:34;0.57;;;0.20;;
32319;SDS011;19080;51.750;5.888;2024-03-02T03:15:01;0.20;;;0.20;;
32319;SDS011;19080;51.750;5.888;2024-03-02T03:17:29;0.40;;;0.25;;
32319;SDS011;19080;51.750;5.888;2024-03-02T03:19:56;0.82;;;0.20;;
32319;SDS011;19080;51.750;5.888;2024-03-02T03:22:22;0.82;;;0.20;;
32319;SDS011;19080;51.750;5.888;2024-03-02T03:24:49;1.20;;;0.20;;
32319;SDS011;19080;51.750;5.888;2024-03-02T03:27:16;1.13;;;0.30;;
32319;SDS011;19080;51.750;5.888;2024-03-02T03:29:43;0.43;;;0.30;;
32319;SDS011;19080;51.750;5.888;2024-03-02T03:32:09;0.52;;;0.30;;
32319;SDS011;19080;51.750;5.888;2024-03-02T03:34:36;0.30;;;0.30;;
32319;SDS011;19080;51.750;5.888;2024-03-02T03:37:03;1.02;;;0.30;;
32319;SDS011;19080;51.750;5.888;2024-03-02T03:39:30;0.38;;;0.38;;
32319;SDS011;19080;51.750;5.888;2024-03-02T03:41:56;0.70;;;0.32;;
32319;SDS011;19080;51.750;5.888;2024-03-02T03:44:23;0.50;;;0.20;;
32319;SDS011;19080;51.750;5.888;2024-03-02T03:46:49;0.60;;;0.38;;
32319;SDS011;19080;51.750;5.888;2024-03-02T03:49:16;0.55;;;0.20;;
32319;SDS011;19080;51.750;5.888;2024-03-02T03:51:43;0.80;;;0.43;;
32319;SDS011;19080;51.750;5.888;2024-03-02T03:54:10;1.27;;;0.40;;
32319;SDS011;19080;51.750;5.888;2024-03-02T03:56:38;1.77;;;0.40;;
32319;SDS011;19080;51.750;5.888;2024-03-02T03:59:05;0.63;;;0.40;;
32319;SDS011;19080;51.750;5.888;2024-03-02T04:01:32;0.40;;;0.20;;
32319;SDS011;19080;51.750;5.888;2024-03-02T04:03:58;0.30;;;0.30;;
32319;SDS011;19080;51.750;5.888;2024-03-02T04:06:25;0.90;;;0.40;;
32319;SDS011;19080;51.750;5.888;2024-03-02T04:08:52;2.60;;;0.45;;
32319;SDS011;19080;51.750;5.888;2024-03-02T04:11:19;1.23;;;1.10;;
32319;SDS011;19080;51.750;5.888;2024-03-02T04:13:45;0.80;;;0.30;;
32319;SDS011;19080;51.750;5.888;2024-03-02T04:16:12;0.98;;;0.60;;
32319;SDS011;19080;51.750;5.888;2024-03-02T04:18:39;0.57;;;0.30;;
32319;SDS011;19080;51.750;5.888;2024-03-02T04:21:06;1.35;;;0.40;;
32319;SDS011;19080;51.750;5.888;2024-03-02T04:23:32;0.50;;;0.32;;
32319;SDS011;19080;51.750;5.888;2024-03-02T04:25:59;0.73;;;0.30;;
32319;SDS011;19080;51.750;5.888;2024-03-02T04:28:26;2.70;;;0.68;;
32319;SDS011;19080;51.750;5.888;2024-03-02T04:30:52;1.38;;;0.38;;
32319;SDS011;19080;51.750;5.888;2024-03-02T04:33:19;0.30;;;0.22;;
32319;SDS011;19080;51.750;5.888;2024-03-02T04:35:46;1.00;;;0.57;;
32319;SDS011;19080;51.750;5.888;2024-03-02T04:38:13;0.10;;;0.10;;
32319;SDS011;19080;51.750;5.888;2024-03-02T04:40:39;3.53;;;0.50;;
32319;SDS011;19080;51.750;5.888;2024-03-02T04:43:06;0.50;;;0.32;;
32319;SDS011;19080;51.750;5.888;2024-03-02T04:45:35;2.08;;;0.20;;
32319;SDS011;19080;51.750;5.888;2024-03-02T04:48:04;0.55;;;0.43;;
32319;SDS011;19080;51.750;5.888;2024-03-02T04:50:31;1.20;;;0.38;;
32319;SDS011;19080;51.750;5.888;2024-03-02T04:52:58;1.17;;;0.50;;
32319;SDS011;19080;51.750;5.888;2024-03-02T04:55:24;1.60;;;0.60;;
32319;SDS011;19080;51.750;5.888;2024-03-02T04:58:11;0.60;;;0.28;;
32319;SDS011;19080;51.750;5.888;2024-03-02T05:00:38;0.77;;;0.20;;
32319;SDS011;19080;51.750;5.888;2024-03-02T05:03:05;1.55;;;0.15;;
32319;SDS011;19080;51.750;5.888;2024-03-02T05:05:31;0.57;;;0.32;;
32319;SDS011;19080;51.750;5.888;2024-03-02T05:07:58;1.00;;;0.47;;
32319;SDS011;19080;51.750;5.888;2024-03-02T05:10:25;1.23;;;0.30;;
32319;SDS011;19080;51.750;5.888;2024-03-02T05:12:51;0.08;;;0.08;;
32319;SDS011;19080;51.750;5.888;2024-03-02T05:15:26;1.60;;;0.40;;
32319;SDS011;19080;51.750;5.888;2024-03-02T05:17:53;0.85;;;0.20;;
32319;SDS011;19080;51.750;5.888;2024-03-02T05:20:20;0.88;;;0.40;;
32319;SDS011;19080;51.750;5.888;2024-03-02T05:22:47;0.95;;;0.40;;
32319;SDS011;19080;51.750;5.888;2024-03-02T05:25:14;0.65;;;0.30;;
32319;SDS011;19080;51.750;5.888;2024-03-02T05:27:41;1.15;;;0.30;;
32319;SDS011;19080;51.750;5.888;2024-03-02T05:30:08;2.47;;;0.35;;
32319;SDS011;19080;51.750;5.888;2024-03-02T05:32:35;2.03;;;0.60;;
32319;SDS011;19080;51.750;5.888;2024-03-02T05:35:02;0.75;;;0.40;;
32319;SDS011;19080;51.750;5.888;2024-03-02T05:37:29;0.22;;;0.22;;
32319;SDS011;19080;51.750;5.888;2024-03-02T05:39:56;2.08;;;0.40;;
32319;SDS011;19080;51.750;5.888;2024-03-02T05:42:23;0.40;;;0.20;;
32319;SDS011;19080;51.750;5.888;2024-03-02T05:44:49;1.23;;;0.28;;
32319;SDS011;19080;51.750;5.888;2024-03-02T05:47:16;0.98;;;0.45;;
32319;SDS011;19080;51.750;5.888;2024-03-02T05:49:43;0.75;;;0.50;;
32319;SDS011;19080;51.750;5.888;2024-03-02T05:52:10;1.75;;;0.43;;
32319;SDS011;19080;51.750;5.888;2024-03-02T05:54:37;2.13;;;0.40;;
32319;SDS011;19080;51.750;5.888;2024-03-02T05:57:05;1.60;;;0.63;;
32319;SDS011;19080;51.750;5.888;2024-03-02T05:59:52;0.77;;;0.40;;
32319;SDS011;19080;51.750;5.888;2024-03-02T06:02:20;2.67;;;0.75;;
32319;SDS011;19080;51.750;5.888;2024-03-02T06:04:46;0.77;;;0.52;;
32319;SDS011;19080;51.750;5.888;2024-03-02T06:07:13;1.17;;;0.60;;
32319;SDS011;19080;51.750;5.888;2024-03-02T06:09:40;0.57;;;0.30;;
32319;SDS011;19080;51.750;5.888;2024-03-02T06:12:07;1.17;;;0.63;;
32319;SDS011;19080;51.750;5.888;2024-03-02T06:14:34;0.57;;;0.50;;
32319;SDS011;19080;51.750;5.888;2024-03-02T06:17:00;2.08;;;1.02;;
32319;SDS011;19080;51.750;5.888;2024-03-02T06:19:27;0.82;;;0.40;;
32319;SDS011;19080;51.750;5.888;2024-03-02T06:21:54;1.23;;;0.47;;
32319;SDS011;19080;51.750;5.888;2024-03-02T06:24:21;1.05;;;0.60;;
32319;SDS011;19080;51.750;5.888;2024-03-02T06:26:48;1.35;;;0.50;;
32319;SDS011;19080;51.750;5.888;2024-03-02T06:29:14;2.13;;;0.47;;
32319;SDS011;19080;51.750;5.888;2024-03-02T06:31:41;1.65;;;0.50;;
32319;SDS011;19080;51.750;5.888;2024-03-02T06:34:08;1.98;;;0.55;;
32319;SDS011;19080;51.750;5.888;2024-03-02T06:36:35;1.60;;;0.50;;
32319;SDS011;19080;51.750;5.888;2024-03-02T06:39:01;1.17;;;0.50;;
32319;SDS011;19080;51.750;5.888;2024-03-02T06:41:28;1.67;;;0.60;;
32319;SDS011;19080;51.750;5.888;2024-03-02T06:43:55;1.88;;;0.60;;
32319;SDS011;19080;51.750;5.888;2024-03-02T06:46:26;2.43;;;0.60;;
32319;SDS011;19080;51.750;5.888;2024-03-02T06:48:53;0.95;;;0.60;;
32319;SDS011;19080;51.750;5.888;2024-03-02T06:51:20;1.10;;;0.77;;
32319;SDS011;19080;51.750;5.888;2024-03-02T06:53:46;2.35;;;0.75;;
32319;SDS011;19080;51.750;5.888;2024-03-02T06:56:13;0.68;;;0.50;;
32319;SDS011;19080;51.750;5.888;2024-03-02T06:58:40;2.58;;;0.55;;
32319;SDS011;19080;51.750;5.888;2024-03-02T07:01:07;2.90;;;0.80;;
32319;SDS011;19080;51.750;5.888;2024-03-02T07:03:34;1.65;;;0.63;;
32319;SDS011;19080;51.750;5.888;2024-03-02T07:06:00;2.50;;;0.60;;
32319;SDS011;19080;51.750;5.888;2024-03-02T07:08:27;1.20;;;0.50;;
32319;SDS011;19080;51.750;5.888;2024-03-02T07:10:54;4.65;;;0.70;;
32319;SDS011;19080;51.750;5.888;2024-03-02T07:13:20;1.23;;;0.80;;
32319;SDS011;19080;51.750;5.888;2024-03-02T07:15:47;1.48;;;0.70;;
32319;SDS011;19080;51.750;5.888;2024-03-02T07:18:29;1.58;;;0.63;;
32319;SDS011;19080;51.750;5.888;2024-03-02T07:20:57;1.60;;;1.02;;
32319;SDS011;19080;51.750;5.888;2024-03-02T07:23:27;0.85;;;0.50;;
32319;SDS011;19080;51.750;5.888;2024-03-02T07:25:54;1.25;;;0.57;;
32319;SDS011;19080;51.750;5.888;2024-03-02T07:28:25;0.32;;;0.32;;
32319;SDS011;19080;51.750;5.888;2024-03-02T07:33:27;1.85;;;0.70;;
32319;SDS011;19080;51.750;5.888;2024-03-02T07:35:54;1.25;;;0.30;;
32319;SDS011;19080;51.750;5.888;2024-03-02T07:38:29;1.60;;;0.93;;
32319;SDS011;19080;51.750;5.888;2024-03-02T07:40:57;3.03;;;0.73;;
32319;SDS011;19080;51.750;5.888;2024-03-02T07:43:24;3.00;;;0.57;;
32319;SDS011;19080;51.750;5.888;2024-03-02T07:45:51;2.30;;;0.57;;
32319;SDS011;19080;51.750;5.888;2024-03-02T07:48:18;0.82;;;0.50;;
32319;SDS011;19080;51.750;5.888;2024-03-02T07:50:45;1.33;;;0.60;;
32319;SDS011;19080;51.750;5.888;2024-03-02T07:53:11;0.88;;;0.55;;
32319;SDS011;19080;51.750;5.888;2024-03-02T07:55:38;2.67;;;0.60;;
32319;SDS011;19080;51.750;5.888;2024-03-02T07:58:05;2.25;;;0.50;;
32319;SDS011;19080;51.750;5.888;2024-03-02T08:00:32;0.82;;;0.50;;
32319;SDS011;19080;51.750;5.888;2024-03-02T08:02:59;2.33;;;0.60;;
32319;SDS011;19080;51.750;5.888;2024-03-02T08:05:27;1.63;;;0.63;;
32319;SDS011;19080;51.750;5.888;2024-03-02T08:07:54;2.28;;;0.75;;
32319;SDS011;19080;51.750;5.888;2024-03-02T08:10:20;2.42;;;0.73;;
32319;SDS011;19080;51.750;5.888;2024-03-02T08:12:47;1.75;;;0.57;;
32319;SDS011;19080;51.750;5.888;2024-03-02T08:15:14;2.17;;;0.70;;
32319;SDS011;19080;51.750;5.888;2024-03-02T08:17:41;2.15;;;0.68;;
32319;SDS011;19080;51.750;5.888;2024-03-02T08:20:11;3.53;;;0.73;;
32319;SDS011;19080;51.750;5.888;2024-03-02T08:22:38;1.73;;;0.60;;
32319;SDS011;19080;51.750;5.888;2024-03-02T08:25:06;1.70;;;0.47;;
32319;SDS011;19080;51.750;5.888;2024-03-02T08:27:34;2.25;;;0.50;;
32319;SDS011;19080;51.750;5.888;2024-03-02T08:30:01;1.38;;;0.50;;
32319;SDS011;19080;51.750;5.888;2024-03-02T08:32:30;1.40;;;0.63;;
32319;SDS011;19080;51.750;5.888;2024-03-02T08:34:56;3.08;;;0.60;;
32319;SDS011;19080;51.750;5.888;2024-03-02T08:37:23;2.00;;;0.77;;
32319;SDS011;19080;51.750;5.888;2024-03-02T08:39:50;1.40;;;0.60;;
32319;SDS011;19080;51.750;5.888;2024-03-02T08:42:16;2.60;;;0.80;;
32319;SDS011;19080;51.750;5.888;2024-03-02T08:44:43;1.92;;;0.77;;
32319;SDS011;19080;51.750;5.888;2024-03-02T08:47:10;3.70;;;1.10;;
32319;SDS011;19080;51.750;5.888;2024-03-02T08:49:37;1.92;;;0.80;;
32319;SDS011;19080;51.750;5.888;2024-03-02T08:52:03;2.22;;;0.65;;
32319;SDS011;19080;51.750;5.888;2024-03-02T08:54:30;1.30;;;0.50;;
32319;SDS011;19080;51.750;5.888;2024-03-02T08:56:57;1.50;;;0.70;;
32319;SDS011;19080;51.750;5.888;2024-03-02T08:59:24;3.10;;;0.93;;
32319;SDS011;19080;51.750;5.888;2024-03-02T09:01:51;1.95;;;1.00;;
32319;SDS011;19080;51.750;5.888;2024-03-02T09:04:18;2.58;;;0.75;;
32319;SDS011;19080;51.750;5.888;2024-03-02T09:06:45;3.10;;;1.05;;
32319;SDS011;19080;51.750;5.888;2024-03-02T09:09:11;1.95;;;0.73;;
32319;SDS011;19080;51.750;5.888;2024-03-02T09:11:38;3.05;;;0.90;;
32319;SDS011;19080;51.750;5.888;2024-03-02T09:14:05;2.63;;;0.68;;
32319;SDS011;19080;51.750;5.888;2024-03-02T09:16:31;2.75;;;0.90;;
32319;SDS011;19080;51.750;5.888;2024-03-02T09:18:58;2.15;;;0.60;;
32319;SDS011;19080;51.750;5.888;2024-03-02T09:21:25;3.17;;;0.82;;
32319;SDS011;19080;51.750;5.888;2024-03-02T09:23:52;1.42;;;0.70;;
32319;SDS011;19080;51.750;5.888;2024-03-02T09:26:18;2.47;;;0.90;;
32319;SDS011;19080;51.750;5.888;2024-03-02T09:28:47;3.88;;;0.95;;
32319;SDS011;19080;51.750;5.888;2024-03-02T09:31:13;3.08;;;0.70;;
32319;SDS011;19080;51.750;5.888;2024-03-02T09:33:40;2.50;;;0.90;;
32319;SDS011;19080;51.750;5.888;2024-03-02T09:36:20;3.83;;;1.00;;
32319;SDS011;19080;51.750;5.888;2024-03-02T09:38:48;3.83;;;0.95;;
32319;SDS011;19080;51.750;5.888;2024-03-02T09:41:15;3.38;;;0.93;;
32319;SDS011;19080;51.750;5.888;2024-03-02T09:43:42;3.78;;;0.73;;
32319;SDS011;19080;51.750;5.888;2024-03-02T09:46:09;1.77;;;0.70;;
32319;SDS011;19080;51.750;5.888;2024-03-02T09:48:36;2.33;;;0.65;;
32319;SDS011;19080;51.750;5.888;2024-03-02T09:51:04;2.08;;;0.70;;
32319;SDS011;19080;51.750;5.888;2024-03-02T09:53:31;1.95;;;0.80;;
32319;SDS011;19080;51.750;5.888;2024-03-02T09:56:00;2.00;;;0.77;;
32319;SDS011;19080;51.750;5.888;2024-03-02T09:58:27;2.67;;;0.68;;
32319;SDS011;19080;51.750;5.888;2024-03-02T10:00:54;2.58;;;0.63;;
32319;SDS011;19080;51.750;5.888;2024-03-02T10:03:22;2.70;;;0.60;;
32319;SDS011;19080;51.750;5.888;2024-03-02T10:05:49;2.30;;;0.70;;
32319;SDS011;19080;51.750;5.888;2024-03-02T10:08:16;2.75;;;0.93;;
32319;SDS011;19080;51.750;5.888;2024-03-02T10:10:43;2.25;;;0.70;;
32319;SDS011;19080;51.750;5.888;2024-03-02T10:13:10;2.30;;;0.98;;
32319;SDS011;19080;51.750;5.888;2024-03-02T10:15:39;2.92;;;0.55;;
32319;SDS011;19080;51.750;5.888;2024-03-02T10:18:10;2.58;;;0.68;;
32319;SDS011;19080;51.750;5.888;2024-03-02T10:20:38;1.88;;;0.70;;
32319;SDS011;19080;51.750;5.888;2024-03-02T10:23:10;1.70;;;0.50;;
32319;SDS011;19080;51.750;5.888;2024-03-02T10:25:40;3.58;;;1.00;;
32319;SDS011;19080;51.750;5.888;2024-03-02T10:28:20;3.30;;;0.75;;
32319;SDS011;19080;51.750;5.888;2024-03-02T10:30:47;3.13;;;0.90;;
32319;SDS011;19080;51.750;5.888;2024-03-02T10:33:15;3.00;;;1.00;;
32319;SDS011;19080;51.750;5.888;2024-03-02T10:35:43;1.85;;;0.80;;
32319;SDS011;19080;51.750;5.888;2024-03-02T10:38:11;2.42;;;0.82;;
32319;SDS011;19080;51.750;5.888;2024-03-02T10:40:38;2.28;;;0.90;;
32319;SDS011;19080;51.750;5.888;2024-03-02T10:43:04;2.38;;;0.77;;
32319;SDS011;19080;51.750;5.888;2024-03-02T10:45:32;2.45;;;0.80;;
32319;SDS011;19080;51.750;5.888;2024-03-02T10:48:00;1.83;;;0.73;;
32319;SDS011;19080;51.750;5.888;2024-03-02T10:50:28;2.20;;;0.63;;
32319;SDS011;19080;51.750;5.888;2024-03-02T10:52:56;2.42;;;0.93;;
32319;SDS011;19080;51.750;5.888;2024-03-02T10:55:23;3.13;;;0.90;;
32319;SDS011;19080;51.750;5.888;2024-03-02T10:57:51;4.93;;;1.10;;
32319;SDS011;19080;51.750;5.888;2024-03-02T11:00:20;1.42;;;0.73;;
32319;SDS011;19080;51.750;5.888;2024-03-02T11:02:56;1.05;;;0.70;;
32319;SDS011;19080;51.750;5.888;2024-03-02T11:05:28;3.00;;;0.80;;
32319;SDS011;19080;51.750;5.888;2024-03-02T11:08:01;0.98;;;0.45;;
32319;SDS011;19080;51.750;5.888;2024-03-02T11:10:34;1.55;;;0.47;;
32319;SDS011;19080;51.750;5.888;2024-03-02T11:13:08;1.92;;;0.70;;
32319;SDS011;19080;51.750;5.888;2024-03-02T11:15:36;2.70;;;0.95;;
32319;SDS011;19080;51.750;5.888;2024-03-02T11:18:05;1.30;;;0.80;;
32319;SDS011;19080;51.750;5.888;2024-03-02T11:20:38;2.33;;;0.90;;
32319;SDS011;19080;51.750;5.888;2024-03-02T11:23:07;1.77;;;0.70;;
32319;SDS011;19080;51.750;5.888;2024-03-02T11:25:35;1.40;;;0.70;;
32319;SDS011;19080;51.750;5.888;2024-03-02T11:28:02;2.58;;;0.70;;
32319;SDS011;19080;51.750;5.888;2024-03-02T11:35:38;2.05;;;0.60;;
32319;SDS011;19080;51.750;5.888;2024-03-02T11:38:13;2.08;;;0.73;;
32319;SDS011;19080;51.750;5.888;2024-03-02T11:40:40;2.80;;;0.75;;
32319;SDS011;19080;51.750;5.888;2024-03-02T11:43:07;3.55;;;0.95;;
32319;SDS011;19080;51.750;5.888;2024-03-02T11:45:35;1.33;;;0.52;;
32319;SDS011;19080;51.750;5.888;2024-03-02T11:48:07;2.33;;;0.70;;
32319;SDS011;19080;51.750;5.888;2024-03-02T11:50:42;1.33;;;0.68;;
32319;SDS011;19080;51.750;5.888;2024-03-02T11:53:13;1.48;;;0.70;;
32319;SDS011;19080;51.750;5.888;2024-03-02T11:55:40;3.22;;;0.88;;
32319;SDS011;19080;51.750;5.888;2024-03-02T11:58:07;1.75;;;0.90;;
32319;SDS011;19080;51.750;5.888;2024-03-02T12:00:34;2.72;;;1.00;;
32319;SDS011;19080;51.750;5.888;2024-03-02T12:03:05;2.92;;;0.80;;
32319;SDS011;19080;51.750;5.888;2024-03-02T12:05:33;0.88;;;0.60;;
32319;SDS011;19080;51.750;5.888;2024-03-02T12:08:02;2.45;;;1.10;;
32319;SDS011;19080;51.750;5.888;2024-03-02T12:10:30;3.53;;;0.82;;
32319;SDS011;19080;51.750;5.888;2024-03-02T12:12:58;3.63;;;1.20;;
32319;SDS011;19080;51.750;5.888;2024-03-02T12:15:27;1.05;;;0.63;;
32319;SDS011;19080;51.750;5.888;2024-03-02T12:17:56;2.60;;;1.17;;
32319;SDS011;19080;51.750;5.888;2024-03-02T12:20:24;1.85;;;0.65;;
32319;SDS011;19080;51.750;5.888;2024-03-02T12:22:52;1.95;;;0.73;;
32319;SDS011;19080;51.750;5.888;2024-03-02T12:25:20;2.05;;;0.88;;
32319;SDS011;19080;51.750;5.888;2024-03-02T12:27:49;3.88;;;1.27;;
32319;SDS011;19080;51.750;5.888;2024-03-02T12:30:21;2.40;;;0.90;;
32319;SDS011;19080;51.750;5.888;2024-03-02T12:32:48;2.42;;;1.13;;
32319;SDS011;19080;51.750;5.888;2024-03-02T12:35:15;2.17;;;0.70;;
32319;SDS011;19080;51.750;5.888;2024-03-02T12:40:14;4.55;;;1.08;;
32319;SDS011;19080;51.750;5.888;2024-03-02T12:42:44;3.97;;;1.10;;
32319;SDS011;19080;51.750;5.888;2024-03-02T12:45:12;6.65;;;1.23;;
32319;SDS011;19080;51.750;5.888;2024-03-02T12:47:40;3.10;;;1.13;;
32319;SDS011;19080;51.750;5.888;2024-03-02T12:50:09;3.08;;;1.40;;
32319;SDS011;19080;51.750;5.888;2024-03-02T12:52:36;2.72;;;0.80;;
32319;SDS011;19080;51.750;5.888;2024-03-02T12:55:04;2.95;;;1.00;;
32319;SDS011;19080;51.750;5.888;2024-03-02T12:57:32;2.45;;;1.13;;
32319;SDS011;19080;51.750;5.888;2024-03-02T13:00:01;1.58;;;0.80;;
32319;SDS011;19080;51.750;5.888;2024-03-02T13:02:39;3.78;;;1.00;;
32319;SDS011;19080;51.750;5.888;2024-03-02T13:05:07;3.60;;;0.85;;
32319;SDS011;19080;51.750;5.888;2024-03-02T13:07:37;3.60;;;0.80;;
32319;SDS011;19080;51.750;5.888;2024-03-02T13:10:05;2.72;;;0.93;;
32319;SDS011;19080;51.750;5.888;2024-03-02T13:12:35;1.60;;;0.80;;
32319;SDS011;19080;51.750;5.888;2024-03-02T13:15:02;2.08;;;0.73;;
32319;SDS011;19080;51.750;5.888;2024-03-02T13:17:30;3.00;;;1.10;;
32319;SDS011;19080;51.750;5.888;2024-03-02T13:20:04;2.38;;;1.17;;
32319;SDS011;19080;51.750;5.888;2024-03-02T13:22:34;1.98;;;0.77;;
32319;SDS011;19080;51.750;5.888;2024-03-02T13:25:01;1.58;;;0.88;;
32319;SDS011;19080;51.750;5.888;2024-03-02T13:27:33;3.33;;;0.83;;
32319;SDS011;19080;51.750;5.888;2024-03-02T13:30:00;2.40;;;0.88;;
32319;SDS011;19080;51.750;5.888;2024-03-02T13:32:29;1.58;;;0.70;;
32319;SDS011;19080;51.750;5.888;2024-03-02T13:34:55;1.08;;;0.60;;
32319;SDS011;19080;51.750;5.888;2024-03-02T13:37:22;1.83;;;0.70;;
32319;SDS011;19080;51.750;5.888;2024-03-02T13:39:49;2.63;;;1.00;;
32319;SDS011;19080;51.750;5.888;2024-03-02T13:42:16;2.40;;;0.80;;
32319;SDS011;19080;51.750;5.888;2024-03-02T13:44:43;2.47;;;1.00;;
32319;SDS011;19080;51.750;5.888;2024-03-02T13:47:16;5.47;;;1.15;;
32319;SDS011;19080;51.750;5.888;2024-03-02T13:49:43;1.10;;;0.80;;
32319;SDS011;19080;51.750;5.888;2024-03-02T13:52:12;2.88;;;0.95;;
32319;SDS011;19080;51.750;5.888;2024-03-02T13:54:43;4.40;;;0.70;;
32319;SDS011;19080;51.750;5.888;2024-03-02T13:57:12;1.95;;;0.70;;
32319;SDS011;19080;51.750;5.888;2024-03-02T13:59:40;1.55;;;0.85;;
32319;SDS011;19080;51.750;5.888;2024-03-02T14:02:08;3.08;;;0.70;;
32319;SDS011;19080;51.750;5.888;2024-03-02T14:04:35;3.60;;;0.90;;
32319;SDS011;19080;51.750;5.888;2024-03-02T14:07:04;5.38;;;1.02;;
32319;SDS011;19080;51.750;5.888;2024-03-02T14:09:33;2.78;;;0.57;;
32319;SDS011;19080;51.750;5.888;2024-03-02T14:12:00;3.70;;;0.75;;
32319;SDS011;19080;51.750;5.888;2024-03-02T14:14:27;3.33;;;0.90;;
32319;SDS011;19080;51.750;5.888;2024-03-02T14:16:54;1.80;;;0.60;;
32319;SDS011;19080;51.750;5.888;2024-03-02T14:19:22;2.15;;;0.55;;
32319;SDS011;19080;51.750;5.888;2024-03-02T14:21:49;1.92;;;0.80;;
32319;SDS011;19080;51.750;5.888;2024-03-02T14:24:16;4.55;;;0.85;;
32319;SDS011;19080;51.750;5.888;2024-03-02T14:26:43;1.65;;;0.88;;
32319;SDS011;19080;51.750;5.888;2024-03-02T14:29:09;3.85;;;0.80;;
32319;SDS011;19080;51.750;5.888;2024-03-02T14:31:36;5.80;;;0.73;;
32319;SDS011;19080;51.750;5.888;2024-03-02T14:34:03;3.95;;;0.75;;
32319;SDS011;19080;51.750;5.888;2024-03-02T14:36:29;1.63;;;0.68;;
32319;SDS011;19080;51.750;5.888;2024-03-02T14:38:56;4.85;;;1.05;;
32319;SDS011;19080;51.750;5.888;2024-03-02T14:41:23;2.70;;;0.90;;
32319;SDS011;19080;51.750;5.888;2024-03-02T14:43:51;1.38;;;0.38;;
32319;SDS011;19080;51.750;5.888;2024-03-02T14:46:19;1.55;;;0.80;;
32319;SDS011;19080;51.750;5.888;2024-03-02T14:48:46;5.50;;;0.80;;
32319;SDS011;19080;51.750;5.888;2024-03-02T14:51:13;2.03;;;0.70;;
32319;SDS011;19080;51.750;5.888;2024-03-02T14:53:40;5.10;;;1.10;;
32319;SDS011;19080;51.750;5.888;2024-03-02T14:56:07;3.08;;;0.77;;
32319;SDS011;19080;51.750;5.888;2024-03-02T14:58:34;4.47;;;1.00;;
32319;SDS011;19080;51.750;5.888;2024-03-02T15:01:05;3.67;;;0.95;;
32319;SDS011;19080;51.750;5.888;2024-03-02T15:03:32;4.43;;;0.80;;
32319;SDS011;19080;51.750;5.888;2024-03-02T15:05:59;2.08;;;1.00;;
32319;SDS011;19080;51.750;5.888;2024-03-02T15:08:26;6.47;;;0.90;;
32319;SDS011;19080;51.750;5.888;2024-03-02T15:10:53;3.42;;;1.10;;